sensor_id;sensor_type;location;lat;lon;timestamp;P1;durP1;ratioP1;P2;durP2;ratioP2
30062;SDS011;16889;67.864;24.990;2023-04-30T00:04:43;5.80;;;3.42;;
30062;SDS011;16889;67.864;24.990;2023-04-30T00:09:29;4.35;;;3.33;;
30062;SDS011;16889;67.864;24.990;2023-04-30T00:14:15;5.70;;;3.40;;
30062;SDS011;16889;67.864;24.990;2023-04-30T00:19:01;6.57;;;3.47;;
30062;SDS011;16889;67.864;24.990;2023-04-30T00:23:47;5.20;;;3.50;;
30062;SDS011;16889;67.864;24.990;2023-04-30T00:28:34;4.25;;;2.95;;
30062;SDS011;16889;67.864;24.990;2023-04-30T00:33:20;4.43;;;2.95;;
30062;SDS011;16889;67.864;24.990;2023-04-30T00:38:06;4.28;;;2.95;;
30062;SDS011;16889;67.864;24.990;2023-04-30T00:42:51;4.55;;;2.88;;
30062;SDS011;16889;67.864;24.990;2023-04-30T00:47:39;5.50;;;2.65;;
30062;SDS011;16889;67.864;24.990;2023-04-30T00:52:26;3.97;;;2.65;;
30062;SDS011;16889;67.864;24.990;2023-04-30T00:57:12;3.38;;;2.40;;
30062;SDS011;16889;67.864;24.990;2023-04-30T01:01:59;3.00;;;2.05;;
30062;SDS011;16889;67.864;24.990;2023-04-30T01:06:46;3.07;;;2.07;;
30062;SDS011;16889;67.864;24.990;2023-04-30T01:16:53;2.40;;;1.80;;
30062;SDS011;16889;67.864;24.990;2023-04-30T01:22:03;3.35;;;1.75;;
30062;SDS011;16889;67.864;24.990;2023-04-30T01:32:09;2.00;;;1.60;;
30062;SDS011;16889;67.864;24.990;2023-04-30T01:37:07;2.38;;;1.58;;
30062;SDS011;16889;67.864;24.990;2023-04-30T01:57:36;2.50;;;1.70;;
30062;SDS011;16889;67.864;24.990;2023-04-30T02:02:26;2.72;;;1.70;;
30062;SDS011;16889;67.864;24.990;2023-04-30T02:07:12;2.30;;;1.75;;
30062;SDS011;16889;67.864;24.990;2023-04-30T02:12:11;2.22;;;1.80;;
30062;SDS011;16889;67.864;24.990;2023-04-30T02:16:57;2.13;;;1.60;;
30062;SDS011;16889;67.864;24.990;2023-04-30T02:21:43;1.80;;;1.40;;
30062;SDS011;16889;67.864;24.990;2023-04-30T02:26:29;2.28;;;1.58;;
30062;SDS011;16889;67.864;24.990;2023-04-30T02:31:15;1.77;;;1.48;;
30062;SDS011;16889;67.864;24.990;2023-04-30T02:36:01;1.50;;;1.27;;
30062;SDS011;16889;67.864;24.990;2023-04-30T02:40:47;1.88;;;1.50;;
30062;SDS011;16889;67.864;24.990;2023-04-30T02:45:33;1.45;;;1.30;;
30062;SDS011;16889;67.864;24.990;2023-04-30T02:50:18;1.52;;;1.42;;
30062;SDS011;16889;67.864;24.990;2023-04-30T02:55:05;1.90;;;1.40;;
30062;SDS011;16889;67.864;24.990;2023-04-30T02:59:51;1.98;;;1.35;;
30062;SDS011;16889;67.864;24.990;2023-04-30T03:04:37;1.73;;;1.30;;
30062;SDS011;16889;67.864;24.990;2023-04-30T03:09:23;2.05;;;1.33;;
30062;SDS011;16889;67.864;24.990;2023-04-30T03:14:09;1.50;;;1.40;;
30062;SDS011;16889;67.864;24.990;2023-04-30T03:18:55;1.33;;;1.20;;
30062;SDS011;16889;67.864;24.990;2023-04-30T03:23:41;1.10;;;0.90;;
30062;SDS011;16889;67.864;24.990;2023-04-30T03:28:27;1.38;;;1.00;;
30062;SDS011;16889;67.864;24.990;2023-04-30T03:33:13;1.00;;;0.90;;
30062;SDS011;16889;67.864;24.990;2023-04-30T03:37:59;1.23;;;1.05;;
30062;SDS011;16889;67.864;24.990;2023-04-30T03:42:46;1.60;;;1.00;;
30062;SDS011;16889;67.864;24.990;2023-04-30T03:47:32;1.63;;;0.93;;
30062;SDS011;16889;67.864;24.990;2023-04-30T03:52:19;0.90;;;0.90;;
30062;SDS011;16889;67.864;24.990;2023-04-30T03:57:06;1.10;;;0.90;;
30062;SDS011;16889;67.864;24.990;2023-04-30T04:01:54;1.13;;;0.90;;
30062;SDS011;16889;67.864;24.990;2023-04-30T04:06:40;1.00;;;0.80;;
30062;SDS011;16889;67.864;24.990;2023-04-30T04:11:26;1.08;;;0.93;;
30062;SDS011;16889;67.864;24.990;2023-04-30T04:16:12;0.95;;;0.80;;
30062;SDS011;16889;67.864;24.990;2023-04-30T04:20:58;0.70;;;0.70;;
30062;SDS011;16889;67.864;24.990;2023-04-30T04:25:45;0.70;;;0.70;;
30062;SDS011;16889;67.864;24.990;2023-04-30T04:30:33;0.65;;;0.65;;
30062;SDS011;16889;67.864;24.990;2023-04-30T04:35:20;0.70;;;0.60;;
30062;SDS011;16889;67.864;24.990;2023-04-30T04:40:07;0.70;;;0.60;;
30062;SDS011;16889;67.864;24.990;2023-04-30T04:44:53;0.50;;;0.50;;
30062;SDS011;16889;67.864;24.990;2023-04-30T04:49:39;0.52;;;0.52;;
30062;SDS011;16889;67.864;24.990;2023-04-30T04:54:25;0.50;;;0.50;;
30062;SDS011;16889;67.864;24.990;2023-04-30T04:59:11;0.50;;;0.50;;
30062;SDS011;16889;67.864;24.990;2023-04-30T05:03:58;0.75;;;0.70;;
30062;SDS011;16889;67.864;24.990;2023-04-30T05:08:43;0.70;;;0.70;;
30062;SDS011;16889;67.864;24.990;2023-04-30T05:13:30;0.52;;;0.52;;
30062;SDS011;16889;67.864;24.990;2023-04-30T05:18:15;0.50;;;0.50;;
30062;SDS011;16889;67.864;24.990;2023-04-30T05:23:01;0.45;;;0.45;;
30062;SDS011;16889;67.864;24.990;2023-04-30T05:27:47;0.45;;;0.45;;
30062;SDS011;16889;67.864;24.990;2023-04-30T05:32:33;0.40;;;0.40;;
30062;SDS011;16889;67.864;24.990;2023-04-30T05:37:19;0.40;;;0.40;;
30062;SDS011;16889;67.864;24.990;2023-04-30T05:42:06;0.40;;;0.40;;
30062;SDS011;16889;67.864;24.990;2023-04-30T05:46:52;0.50;;;0.50;;
30062;SDS011;16889;67.864;24.990;2023-04-30T05:51:38;0.40;;;0.40;;
30062;SDS011;16889;67.864;24.990;2023-04-30T05:56:24;0.50;;;0.50;;
30062;SDS011;16889;67.864;24.990;2023-04-30T06:01:10;0.50;;;0.50;;
30062;SDS011;16889;67.864;24.990;2023-04-30T06:05:56;0.50;;;0.50;;
30062;SDS011;16889;67.864;24.990;2023-04-30T06:10:42;0.40;;;0.40;;
30062;SDS011;16889;67.864;24.990;2023-04-30T06:15:28;0.43;;;0.43;;
30062;SDS011;16889;67.864;24.990;2023-04-30T06:20:14;0.50;;;0.50;;
30062;SDS011;16889;67.864;24.990;2023-04-30T06:25:00;0.70;;;0.60;;
30062;SDS011;16889;67.864;24.990;2023-04-30T06:29:47;0.50;;;0.50;;
30062;SDS011;16889;67.864;24.990;2023-04-30T06:34:33;0.93;;;0.47;;
30062;SDS011;16889;67.864;24.990;2023-04-30T06:39:21;0.60;;;0.60;;
30062;SDS011;16889;67.864;24.990;2023-04-30T06:44:07;0.73;;;0.60;;
30062;SDS011;16889;67.864;24.990;2023-04-30T06:48:53;0.73;;;0.60;;
30062;SDS011;16889;67.864;24.990;2023-04-30T06:53:39;0.30;;;0.30;;
30062;SDS011;16889;67.864;24.990;2023-04-30T06:58:25;0.50;;;0.50;;
30062;SDS011;16889;67.864;24.990;2023-04-30T07:03:11;0.50;;;0.50;;
30062;SDS011;16889;67.864;24.990;2023-04-30T07:07:59;1.85;;;0.57;;
30062;SDS011;16889;67.864;24.990;2023-04-30T07:12:46;0.98;;;0.50;;
30062;SDS011;16889;67.864;24.990;2023-04-30T07:17:32;0.45;;;0.45;;
30062;SDS011;16889;67.864;24.990;2023-04-30T07:22:18;0.43;;;0.43;;
30062;SDS011;16889;67.864;24.990;2023-04-30T07:27:04;0.60;;;0.50;;
30062;SDS011;16889;67.864;24.990;2023-04-30T07:31:51;0.40;;;0.40;;
30062;SDS011;16889;67.864;24.990;2023-04-30T07:36:37;0.47;;;0.47;;
30062;SDS011;16889;67.864;24.990;2023-04-30T07:41:23;0.50;;;0.50;;
30062;SDS011;16889;67.864;24.990;2023-04-30T07:46:10;1.13;;;0.60;;
30062;SDS011;16889;67.864;24.990;2023-04-30T07:50:56;0.60;;;0.40;;
30062;SDS011;16889;67.864;24.990;2023-04-30T07:55:42;0.57;;;0.50;;
30062;SDS011;16889;67.864;24.990;2023-04-30T08:00:28;0.40;;;0.40;;
30062;SDS011;16889;67.864;24.990;2023-04-30T08:05:15;0.60;;;0.60;;
30062;SDS011;16889;67.864;24.990;2023-04-30T08:10:01;0.40;;;0.40;;
30062;SDS011;16889;67.864;24.990;2023-04-30T08:14:47;1.17;;;0.43;;
30062;SDS011;16889;67.864;24.990;2023-04-30T08:19:33;1.70;;;0.40;;
30062;SDS011;16889;67.864;24.990;2023-04-30T08:24:18;0.82;;;0.40;;
30062;SDS011;16889;67.864;24.990;2023-04-30T08:29:04;0.40;;;0.40;;
30062;SDS011;16889;67.864;24.990;2023-04-30T08:33:52;0.30;;;0.30;;
30062;SDS011;16889;67.864;24.990;2023-04-30T08:38:38;0.50;;;0.40;;
30062;SDS011;16889;67.864;24.990;2023-04-30T08:43:24;0.30;;;0.30;;
30062;SDS011;16889;67.864;24.990;2023-04-30T08:48:10;0.43;;;0.43;;
30062;SDS011;16889;67.864;24.990;2023-04-30T08:53:02;0.50;;;0.50;;
30062;SDS011;16889;67.864;24.990;2023-04-30T08:57:48;0.40;;;0.40;;
30062;SDS011;16889;67.864;24.990;2023-04-30T09:02:34;0.40;;;0.40;;
30062;SDS011;16889;67.864;24.990;2023-04-30T09:07:26;0.40;;;0.40;;
30062;SDS011;16889;67.864;24.990;2023-04-30T09:12:17;0.32;;;0.32;;
30062;SDS011;16889;67.864;24.990;2023-04-30T09:17:03;1.42;;;0.40;;
30062;SDS011;16889;67.864;24.990;2023-04-30T09:21:50;0.40;;;0.40;;
30062;SDS011;16889;67.864;24.990;2023-04-30T09:26:37;0.73;;;0.57;;
30062;SDS011;16889;67.864;24.990;2023-04-30T09:31:23;0.50;;;0.50;;
30062;SDS011;16889;67.864;24.990;2023-04-30T09:36:10;0.60;;;0.40;;
30062;SDS011;16889;67.864;24.990;2023-04-30T09:40:58;2.08;;;0.50;;
30062;SDS011;16889;67.864;24.990;2023-04-30T09:45:45;0.50;;;0.50;;
30062;SDS011;16889;67.864;24.990;2023-04-30T09:50:37;0.98;;;0.60;;
30062;SDS011;16889;67.864;24.990;2023-04-30T09:55:24;0.73;;;0.60;;
30062;SDS011;16889;67.864;24.990;2023-04-30T10:00:10;0.85;;;0.63;;
30062;SDS011;16889;67.864;24.990;2023-04-30T10:04:57;0.50;;;0.50;;
30062;SDS011;16889;67.864;24.990;2023-04-30T10:14:54;1.67;;;0.75;;
30062;SDS011;16889;67.864;24.990;2023-04-30T10:19:47;0.60;;;0.60;;
30062;SDS011;16889;67.864;24.990;2023-04-30T10:24:36;1.15;;;0.70;;
30062;SDS011;16889;67.864;24.990;2023-04-30T10:29:23;1.67;;;0.73;;
30062;SDS011;16889;67.864;24.990;2023-04-30T10:34:25;1.40;;;0.63;;
30062;SDS011;16889;67.864;24.990;2023-04-30T10:39:20;0.95;;;0.70;;
30062;SDS011;16889;67.864;24.990;2023-04-30T10:44:08;2.33;;;0.73;;
30062;SDS011;16889;67.864;24.990;2023-04-30T10:48:54;1.00;;;0.80;;
30062;SDS011;16889;67.864;24.990;2023-04-30T10:53:40;0.82;;;0.60;;
30062;SDS011;16889;67.864;24.990;2023-04-30T11:03:15;0.80;;;0.60;;
30062;SDS011;16889;67.864;24.990;2023-04-30T11:08:01;0.45;;;0.45;;
30062;SDS011;16889;67.864;24.990;2023-04-30T11:12:47;0.73;;;0.60;;
30062;SDS011;16889;67.864;24.990;2023-04-30T11:17:38;0.65;;;0.60;;
30062;SDS011;16889;67.864;24.990;2023-04-30T11:22:25;0.63;;;0.50;;
30062;SDS011;16889;67.864;24.990;2023-04-30T11:27:14;0.82;;;0.60;;
30062;SDS011;16889;67.864;24.990;2023-04-30T11:32:08;0.63;;;0.50;;
30062;SDS011;16889;67.864;24.990;2023-04-30T11:36:54;0.88;;;0.68;;
30062;SDS011;16889;67.864;24.990;2023-04-30T11:41:43;0.90;;;0.73;;
30062;SDS011;16889;67.864;24.990;2023-04-30T11:46:30;0.65;;;0.57;;
30062;SDS011;16889;67.864;24.990;2023-04-30T11:51:22;0.82;;;0.63;;
30062;SDS011;16889;67.864;24.990;2023-04-30T11:56:11;1.35;;;0.50;;
30062;SDS011;16889;67.864;24.990;2023-04-30T12:00:58;0.80;;;0.70;;
30062;SDS011;16889;67.864;24.990;2023-04-30T12:05:45;2.15;;;1.00;;
30062;SDS011;16889;67.864;24.990;2023-04-30T12:10:32;0.73;;;0.68;;
30062;SDS011;16889;67.864;24.990;2023-04-30T12:15:18;1.95;;;0.80;;
30062;SDS011;16889;67.864;24.990;2023-04-30T12:20:13;0.90;;;0.70;;
30062;SDS011;16889;67.864;24.990;2023-04-30T12:25:00;1.17;;;0.80;;
30062;SDS011;16889;67.864;24.990;2023-04-30T12:29:55;0.77;;;0.70;;
30062;SDS011;16889;67.864;24.990;2023-04-30T12:34:41;1.52;;;0.80;;
30062;SDS011;16889;67.864;24.990;2023-04-30T12:39:31;0.90;;;0.80;;
30062;SDS011;16889;67.864;24.990;2023-04-30T12:44:19;1.85;;;0.80;;
30062;SDS011;16889;67.864;24.990;2023-04-30T12:49:09;1.17;;;0.70;;
30062;SDS011;16889;67.864;24.990;2023-04-30T12:53:55;1.15;;;0.70;;
30062;SDS011;16889;67.864;24.990;2023-04-30T12:58:42;1.02;;;0.70;;
30062;SDS011;16889;67.864;24.990;2023-04-30T13:03:33;0.70;;;0.70;;
30062;SDS011;16889;67.864;24.990;2023-04-30T13:08:20;3.80;;;0.93;;
30062;SDS011;16889;67.864;24.990;2023-04-30T13:13:06;3.15;;;0.88;;
30062;SDS011;16889;67.864;24.990;2023-04-30T13:17:52;1.42;;;0.90;;
30062;SDS011;16889;67.864;24.990;2023-04-30T13:22:38;1.25;;;0.82;;
30062;SDS011;16889;67.864;24.990;2023-04-30T13:27:24;2.45;;;1.20;;
30062;SDS011;16889;67.864;24.990;2023-04-30T13:32:10;1.52;;;0.82;;
30062;SDS011;16889;67.864;24.990;2023-04-30T13:36:56;0.90;;;0.70;;
30062;SDS011;16889;67.864;24.990;2023-04-30T13:41:42;1.65;;;1.00;;
30062;SDS011;16889;67.864;24.990;2023-04-30T13:46:29;2.25;;;0.90;;
30062;SDS011;16889;67.864;24.990;2023-04-30T13:51:15;1.38;;;0.90;;
30062;SDS011;16889;67.864;24.990;2023-04-30T13:56:01;2.35;;;1.00;;
30062;SDS011;16889;67.864;24.990;2023-04-30T14:00:47;2.13;;;0.73;;
30062;SDS011;16889;67.864;24.990;2023-04-30T14:05:34;2.10;;;0.80;;
30062;SDS011;16889;67.864;24.990;2023-04-30T14:10:20;3.92;;;1.00;;
30062;SDS011;16889;67.864;24.990;2023-04-30T14:15:06;2.95;;;1.33;;
30062;SDS011;16889;67.864;24.990;2023-04-30T14:19:54;2.92;;;1.00;;
30062;SDS011;16889;67.864;24.990;2023-04-30T14:24:40;3.53;;;1.02;;
30062;SDS011;16889;67.864;24.990;2023-04-30T14:29:27;1.80;;;0.95;;
30062;SDS011;16889;67.864;24.990;2023-04-30T14:34:12;5.13;;;1.40;;
30062;SDS011;16889;67.864;24.990;2023-04-30T14:38:59;2.28;;;1.13;;
30062;SDS011;16889;67.864;24.990;2023-04-30T14:43:45;3.45;;;1.08;;
30062;SDS011;16889;67.864;24.990;2023-04-30T14:48:31;2.03;;;1.30;;
30062;SDS011;16889;67.864;24.990;2023-04-30T14:53:17;3.13;;;1.13;;
30062;SDS011;16889;67.864;24.990;2023-04-30T14:58:03;3.47;;;0.90;;
30062;SDS011;16889;67.864;24.990;2023-04-30T15:02:50;2.42;;;1.23;;
30062;SDS011;16889;67.864;24.990;2023-04-30T15:07:35;2.13;;;1.10;;
30062;SDS011;16889;67.864;24.990;2023-04-30T15:12:21;3.35;;;1.10;;
30062;SDS011;16889;67.864;24.990;2023-04-30T15:17:07;4.40;;;1.38;;
30062;SDS011;16889;67.864;24.990;2023-04-30T15:21:53;5.10;;;1.40;;
30062;SDS011;16889;67.864;24.990;2023-04-30T15:26:39;2.67;;;1.10;;
30062;SDS011;16889;67.864;24.990;2023-04-30T15:31:26;3.05;;;1.30;;
30062;SDS011;16889;67.864;24.990;2023-04-30T15:36:12;3.13;;;1.00;;
30062;SDS011;16889;67.864;24.990;2023-04-30T15:40:58;2.63;;;1.15;;
30062;SDS011;16889;67.864;24.990;2023-04-30T15:45:44;3.38;;;1.00;;
30062;SDS011;16889;67.864;24.990;2023-04-30T15:50:30;2.20;;;1.10;;
30062;SDS011;16889;67.864;24.990;2023-04-30T15:55:16;3.45;;;1.08;;
30062;SDS011;16889;67.864;24.990;2023-04-30T16:00:02;1.70;;;0.90;;
30062;SDS011;16889;67.864;24.990;2023-04-30T16:04:49;1.70;;;1.02;;
30062;SDS011;16889;67.864;24.990;2023-04-30T16:09:35;1.33;;;1.05;;
30062;SDS011;16889;67.864;24.990;2023-04-30T16:14:21;1.73;;;1.15;;
30062;SDS011;16889;67.864;24.990;2023-04-30T16:19:07;2.22;;;1.20;;
30062;SDS011;16889;67.864;24.990;2023-04-30T16:23:53;4.47;;;1.05;;
30062;SDS011;16889;67.864;24.990;2023-04-30T16:28:39;1.23;;;0.90;;
30062;SDS011;16889;67.864;24.990;2023-04-30T16:33:25;1.77;;;1.00;;
30062;SDS011;16889;67.864;24.990;2023-04-30T16:38:11;3.33;;;0.90;;
30062;SDS011;16889;67.864;24.990;2023-04-30T16:42:57;2.20;;;0.90;;
30062;SDS011;16889;67.864;24.990;2023-04-30T16:47:43;6.00;;;1.13;;
30062;SDS011;16889;67.864;24.990;2023-04-30T16:52:29;2.00;;;1.00;;
30062;SDS011;16889;67.864;24.990;2023-04-30T16:57:17;3.28;;;1.00;;
30062;SDS011;16889;67.864;24.990;2023-04-30T17:02:03;1.88;;;1.10;;
30062;SDS011;16889;67.864;24.990;2023-04-30T17:06:50;2.20;;;1.00;;
30062;SDS011;16889;67.864;24.990;2023-04-30T17:11:36;4.55;;;0.93;;
30062;SDS011;16889;67.864;24.990;2023-04-30T17:16:22;1.45;;;1.20;;
30062;SDS011;16889;67.864;24.990;2023-04-30T17:21:08;2.83;;;1.10;;
30062;SDS011;16889;67.864;24.990;2023-04-30T17:25:54;1.05;;;0.95;;
30062;SDS011;16889;67.864;24.990;2023-04-30T17:30:40;4.32;;;1.05;;
30062;SDS011;16889;67.864;24.990;2023-04-30T17:40:14;2.05;;;1.15;;
30062;SDS011;16889;67.864;24.990;2023-04-30T17:45:00;2.85;;;1.40;;
30062;SDS011;16889;67.864;24.990;2023-04-30T17:49:46;3.10;;;1.00;;
30062;SDS011;16889;67.864;24.990;2023-04-30T17:54:32;0.90;;;0.82;;
30062;SDS011;16889;67.864;24.990;2023-04-30T17:59:18;1.85;;;1.10;;
30062;SDS011;16889;67.864;24.990;2023-04-30T18:04:05;1.40;;;0.90;;
30062;SDS011;16889;67.864;24.990;2023-04-30T18:08:52;2.30;;;1.08;;
30062;SDS011;16889;67.864;24.990;2023-04-30T18:13:38;1.73;;;1.00;;
30062;SDS011;16889;67.864;24.990;2023-04-30T18:18:24;2.47;;;1.02;;
30062;SDS011;16889;67.864;24.990;2023-04-30T18:23:10;1.20;;;1.00;;
30062;SDS011;16889;67.864;24.990;2023-04-30T18:27:57;1.50;;;1.10;;
30062;SDS011;16889;67.864;24.990;2023-04-30T18:32:43;2.50;;;1.20;;
30062;SDS011;16889;67.864;24.990;2023-04-30T18:37:29;1.70;;;1.10;;
30062;SDS011;16889;67.864;24.990;2023-04-30T18:42:15;2.58;;;1.38;;
30062;SDS011;16889;67.864;24.990;2023-04-30T18:47:01;4.07;;;1.45;;
30062;SDS011;16889;67.864;24.990;2023-04-30T18:51:48;1.40;;;1.00;;
30062;SDS011;16889;67.864;24.990;2023-04-30T18:56:34;1.73;;;1.42;;
30062;SDS011;16889;67.864;24.990;2023-04-30T19:01:21;2.05;;;1.35;;
30062;SDS011;16889;67.864;24.990;2023-04-30T19:06:11;2.67;;;1.42;;
30062;SDS011;16889;67.864;24.990;2023-04-30T19:10:57;3.53;;;1.30;;
30062;SDS011;16889;67.864;24.990;2023-04-30T19:15:42;2.38;;;1.50;;
30062;SDS011;16889;67.864;24.990;2023-04-30T19:20:30;2.47;;;1.40;;
30062;SDS011;16889;67.864;24.990;2023-04-30T19:25:15;2.50;;;1.65;;
30062;SDS011;16889;67.864;24.990;2023-04-30T19:30:02;2.65;;;1.50;;
30062;SDS011;16889;67.864;24.990;2023-04-30T19:34:48;2.50;;;1.40;;
30062;SDS011;16889;67.864;24.990;2023-04-30T19:39:34;2.55;;;1.70;;
30062;SDS011;16889;67.864;24.990;2023-04-30T19:44:20;4.13;;;1.92;;
30062;SDS011;16889;67.864;24.990;2023-04-30T19:49:06;3.25;;;1.90;;
30062;SDS011;16889;67.864;24.990;2023-04-30T19:53:52;4.43;;;1.90;;
30062;SDS011;16889;67.864;24.990;2023-04-30T19:58:39;3.85;;;2.13;;
30062;SDS011;16889;67.864;24.990;2023-04-30T20:03:25;3.55;;;1.98;;
30062;SDS011;16889;67.864;24.990;2023-04-30T20:08:11;3.30;;;1.70;;
30062;SDS011;16889;67.864;24.990;2023-04-30T20:12:57;3.88;;;2.13;;
30062;SDS011;16889;67.864;24.990;2023-04-30T20:17:43;3.50;;;1.70;;
30062;SDS011;16889;67.864;24.990;2023-04-30T20:22:30;3.67;;;2.00;;
30062;SDS011;16889;67.864;24.990;2023-04-30T20:27:16;10.57;;;2.20;;
30062;SDS011;16889;67.864;24.990;2023-04-30T20:32:02;2.22;;;1.80;;
30062;SDS011;16889;67.864;24.990;2023-04-30T20:36:49;3.57;;;1.70;;
30062;SDS011;16889;67.864;24.990;2023-04-30T20:41:36;5.13;;;1.75;;
30062;SDS011;16889;67.864;24.990;2023-04-30T20:46:23;3.17;;;1.85;;
30062;SDS011;16889;67.864;24.990;2023-04-30T20:51:09;3.97;;;1.80;;
30062;SDS011;16889;67.864;24.990;2023-04-30T20:55:55;5.55;;;2.13;;
30062;SDS011;16889;67.864;24.990;2023-04-30T21:00:44;2.63;;;1.90;;
30062;SDS011;16889;67.864;24.990;2023-04-30T21:05:30;1.92;;;1.67;;
30062;SDS011;16889;67.864;24.990;2023-04-30T21:10:16;2.40;;;2.00;;
30062;SDS011;16889;67.864;24.990;2023-04-30T21:15:02;2.42;;;1.85;;
30062;SDS011;16889;67.864;24.990;2023-04-30T21:19:48;4.05;;;2.08;;
30062;SDS011;16889;67.864;24.990;2023-04-30T21:24:34;2.65;;;1.90;;
30062;SDS011;16889;67.864;24.990;2023-04-30T21:29:20;2.65;;;1.88;;
30062;SDS011;16889;67.864;24.990;2023-04-30T21:34:06;3.45;;;1.50;;
30062;SDS011;16889;67.864;24.990;2023-04-30T21:38:52;1.80;;;1.48;;
30062;SDS011;16889;67.864;24.990;2023-04-30T21:43:38;3.17;;;2.03;;
30062;SDS011;16889;67.864;24.990;2023-04-30T21:48:25;2.65;;;2.03;;
30062;SDS011;16889;67.864;24.990;2023-04-30T21:53:11;2.58;;;1.88;;
30062;SDS011;16889;67.864;24.990;2023-04-30T21:57:57;2.75;;;1.85;;
30062;SDS011;16889;67.864;24.990;2023-04-30T22:02:43;2.75;;;1.80;;
30062;SDS011;16889;67.864;24.990;2023-04-30T22:07:30;2.30;;;1.80;;
30062;SDS011;16889;67.864;24.990;2023-04-30T22:12:16;2.50;;;1.98;;
30062;SDS011;16889;67.864;24.990;2023-04-30T22:17:03;3.63;;;2.08;;
30062;SDS011;16889;67.864;24.990;2023-04-30T22:21:49;2.97;;;2.08;;
30062;SDS011;16889;67.864;24.990;2023-04-30T22:26:35;2.72;;;2.15;;
30062;SDS011;16889;67.864;24.990;2023-04-30T22:31:21;3.63;;;2.35;;
30062;SDS011;16889;67.864;24.990;2023-04-30T22:36:07;3.08;;;2.58;;
30062;SDS011;16889;67.864;24.990;2023-04-30T22:40:54;3.27;;;2.80;;
30062;SDS011;16889;67.864;24.990;2023-04-30T22:45:41;4.15;;;2.55;;
30062;SDS011;16889;67.864;24.990;2023-04-30T22:50:27;3.50;;;2.75;;
30062;SDS011;16889;67.864;24.990;2023-04-30T22:55:15;3.78;;;2.85;;
30062;SDS011;16889;67.864;24.990;2023-04-30T23:00:01;4.00;;;2.92;;
30062;SDS011;16889;67.864;24.990;2023-04-30T23:04:49;2.85;;;2.55;;
30062;SDS011;16889;67.864;24.990;2023-04-30T23:09:35;3.25;;;2.60;;
30062;SDS011;16889;67.864;24.990;2023-04-30T23:14:21;3.92;;;3.03;;
30062;SDS011;16889;67.864;24.990;2023-04-30T23:19:07;4.03;;;3.10;;
30062;SDS011;16889;67.864;24.990;2023-04-30T23:23:54;3.45;;;2.88;;
30062;SDS011;16889;67.864;24.990;2023-04-30T23:28:40;4.65;;;3.20;;
30062;SDS011;16889;67.864;24.990;2023-04-30T23:33:26;3.38;;;2.70;;
30062;SDS011;16889;67.864;24.990;2023-04-30T23:38:12;3.20;;;2.88;;
30062;SDS011;16889;67.864;24.990;2023-04-30T23:42:59;3.95;;;2.90;;
30062;SDS011;16889;67.864;24.990;2023-04-30T23:47:45;4.50;;;2.45;;
30062;SDS011;16889;67.864;24.990;2023-04-30T23:52:31;3.05;;;2.47;;
30062;SDS011;16889;67.864;24.990;2023-04-30T23:57:17;2.95;;;2.58;;
